PWSweather.com
Personal Weather Stations
Station Observations
IPODRAVI2
Croatia, Trnovec BartoloveckiHR

CroatiaTrnovec BartoloveckiHR

Lat: 46.2947, Lon: 16.3989

Elevation: 535

Station Type: Davis Vantage Pro2 plus

http://www.pljusak.com/trnovec1/wx.html

High Low Average
Temperature 0.0°F-17.8°F 0.0°F-17.8°F 0.0°F-17.8°F
Dew Point 0.0°F-17.8°F 0.0°F-17.8°F 0.0°F-17.8°F
Winds Calm Calm Calm Calm Calm Calm
Wind Gusts -- -- --
Humidity 0% 0% 0%
Pressure 0.00 in0.00 in 0.00 in0.00 in -
Precipitation 0.00 in0.0 mm - -
Hour Temp Dew Point Humidity Winds Wind Gusts Pressure Precip Precip Rate Daily Precip Total
12:00 AM 44.9°F7.2°C 39.7°F4.3°C 82% Calm Calm -- 30.13 in1020.3 mb - 0.00 in0.0 mm 0.00 in0.0 mm
12:05 AM 44.7°F7.1°C 39.5°F4.2°C 82% Calm Calm -- 30.13 in1020.3 mb - 0.00 in0.0 mm 0.00 in0.0 mm
12:10 AM 44.4°F6.9°C 39.6°F4.2°C 83% Calm Calm -- 30.13 in1020.3 mb - 0.00 in0.0 mm 0.00 in0.0 mm
12:15 AM 44.2°F6.8°C 39.4°F4.1°C 83% Calm Calm -- 30.13 in1020.3 mb - 0.00 in0.0 mm 0.00 in0.0 mm
12:20 AM 43.9°F6.6°C 39.1°F3.9°C 83% Calm Calm 1.2 mph1.9 kmh 30.13 in1020.3 mb - 0.00 in0.0 mm 0.00 in0.0 mm
12:25 AM 43.5°F6.4°C 38.6°F3.7°C 83% Calm Calm -- 30.13 in1020.3 mb - 0.00 in0.0 mm 0.00 in0.0 mm
12:30 AM 43.1°F6.2°C 38.3°F3.5°C 83% Calm Calm -- 30.13 in1020.3 mb - 0.00 in0.0 mm 0.00 in0.0 mm
12:35 AM 42.9°F6.1°C 38.1°F3.4°C 83% Calm Calm -- 30.13 in1020.3 mb - 0.00 in0.0 mm 0.00 in0.0 mm
12:40 AM 42.8°F6.0°C 38.3°F3.5°C 84% Calm Calm -- 30.12 in1020.0 mb - 0.00 in0.0 mm 0.00 in0.0 mm
12:45 AM 42.6°F5.9°C 38.1°F3.4°C 84% Calm Calm -- 30.13 in1020.3 mb - 0.00 in0.0 mm 0.00 in0.0 mm
12:50 AM 42.4°F5.8°C 37.9°F3.3°C 84% Calm Calm -- 30.12 in1020.0 mb - 0.00 in0.0 mm 0.00 in0.0 mm
12:55 AM 42.2°F5.7°C 37.7°F3.2°C 84% Calm Calm -- 30.12 in1020.0 mb - 0.00 in0.0 mm 0.00 in0.0 mm
01:00 AM 42.1°F5.6°C 37.9°F3.3°C 85% Calm Calm -- 30.12 in1020.0 mb - 0.00 in0.0 mm 0.00 in0.0 mm
01:05 AM 41.9°F5.5°C 37.7°F3.2°C 85% Calm Calm 1.2 mph1.9 kmh 30.12 in1020.0 mb - 0.00 in0.0 mm 0.00 in0.0 mm
01:10 AM 41.8°F5.4°C 37.9°F3.3°C 86% Calm Calm -- 30.12 in1020.0 mb - 0.00 in0.0 mm 0.00 in0.0 mm
01:15 AM 41.7°F5.4°C 37.8°F3.2°C 86% Calm Calm 1.2 mph1.9 kmh 30.12 in1020.0 mb - 0.00 in0.0 mm 0.00 in0.0 mm
01:20 AM 41.7°F5.4°C 37.8°F3.2°C 86% 1.2 mph W1.9 kmh W 1.2 mph1.9 kmh 30.12 in1020.0 mb - 0.00 in0.0 mm 0.00 in0.0 mm
01:25 AM 41.6°F5.3°C 37.7°F3.2°C 86% Calm Calm 1.2 mph1.9 kmh 30.12 in1020.0 mb - 0.00 in0.0 mm 0.00 in0.0 mm
01:30 AM 41.5°F5.3°C 37.4°F3.0°C 85% Calm Calm -- 30.12 in1020.0 mb - 0.00 in0.0 mm 0.00 in0.0 mm
01:35 AM 41.4°F5.2°C 37.2°F2.9°C 85% Calm Calm -- 30.12 in1020.0 mb - 0.00 in0.0 mm 0.00 in0.0 mm
01:40 AM 41.3°F5.2°C 37.1°F2.8°C 85% Calm Calm -- 30.12 in1020.0 mb - 0.00 in0.0 mm 0.00 in0.0 mm
01:45 AM 41.1°F5.1°C 36.9°F2.7°C 85% Calm Calm -- 30.12 in1020.0 mb - 0.00 in0.0 mm 0.00 in0.0 mm
01:50 AM 40.9°F4.9°C 36.8°F2.7°C 85% Calm Calm -- 30.12 in1020.0 mb - 0.00 in0.0 mm 0.00 in0.0 mm
01:55 AM 40.8°F4.9°C 36.9°F2.7°C 86% Calm Calm -- 30.12 in1020.0 mb - 0.00 in0.0 mm 0.00 in0.0 mm
02:00 AM 40.6°F4.8°C 36.7°F2.6°C 86% Calm Calm -- 30.12 in1020.0 mb - 0.00 in0.0 mm 0.00 in0.0 mm
02:05 AM 40.4°F4.7°C 36.5°F2.5°C 86% Calm Calm -- 30.12 in1020.0 mb - 0.00 in0.0 mm 0.00 in0.0 mm
02:10 AM 40.2°F4.6°C 36.3°F2.4°C 86% Calm Calm -- 30.12 in1020.0 mb - 0.00 in0.0 mm 0.00 in0.0 mm
02:15 AM 40.0°F4.4°C 36.5°F2.5°C 87% 1.2 mph W1.9 kmh W 2.3 mph3.7 kmh 30.12 in1020.0 mb - 0.00 in0.0 mm 0.00 in0.0 mm
02:20 AM 39.9°F4.4°C 36.3°F2.4°C 87% 2.3 mph SW3.7 kmh SW 3.5 mph5.6 kmh 30.12 in1020.0 mb - 0.00 in0.0 mm 0.00 in0.0 mm
02:25 AM 39.7°F4.3°C 36.1°F2.3°C 87% 2.3 mph WSW3.7 kmh WSW 3.5 mph5.6 kmh 30.12 in1020.0 mb - 0.00 in0.0 mm 0.00 in0.0 mm
02:30 AM 39.6°F4.2°C 36.0°F2.2°C 87% Calm Calm -- 30.12 in1020.0 mb - 0.00 in0.0 mm 0.00 in0.0 mm
02:35 AM 39.5°F4.2°C 36.0°F2.2°C 87% 1.2 mph W1.9 kmh W 2.3 mph3.7 kmh 30.12 in1020.0 mb - 0.00 in0.0 mm 0.00 in0.0 mm
02:40 AM 39.4°F4.1°C 36.1°F2.3°C 88% 1.2 mph WSW1.9 kmh WSW 3.5 mph5.6 kmh 30.12 in1020.0 mb - 0.00 in0.0 mm 0.00 in0.0 mm
02:45 AM 39.3°F4.1°C 36.0°F2.2°C 88% Calm Calm -- 30.12 in1020.0 mb - 0.00 in0.0 mm 0.00 in0.0 mm
02:50 AM 39.3°F4.1°C 36.0°F2.2°C 88% Calm Calm -- 30.12 in1020.0 mb - 0.00 in0.0 mm 0.00 in0.0 mm
02:55 AM 39.2°F4.0°C 35.9°F2.2°C 88% Calm Calm -- 30.12 in1020.0 mb - 0.00 in0.0 mm 0.00 in0.0 mm
03:00 AM 39.1°F3.9°C 35.8°F2.1°C 88% Calm Calm -- 30.12 in1020.0 mb - 0.00 in0.0 mm 0.00 in0.0 mm
03:05 AM 39.0°F3.9°C 35.7°F2.1°C 88% Calm Calm -- 30.12 in1020.0 mb - 0.00 in0.0 mm 0.00 in0.0 mm
03:10 AM 38.9°F3.8°C 35.6°F2.0°C 88% Calm Calm -- 30.12 in1020.0 mb - 0.00 in0.0 mm 0.00 in0.0 mm
03:15 AM 38.8°F3.8°C 35.5°F1.9°C 88% Calm Calm -- 30.12 in1020.0 mb - 0.00 in0.0 mm 0.00 in0.0 mm
03:20 AM 38.6°F3.7°C 35.4°F1.9°C 88% Calm Calm -- 30.12 in1020.0 mb - 0.00 in0.0 mm 0.00 in0.0 mm
03:25 AM 38.5°F3.6°C 35.3°F1.8°C 88% Calm Calm -- 30.12 in1020.0 mb - 0.00 in0.0 mm 0.00 in0.0 mm
03:30 AM 38.4°F3.6°C 35.4°F1.9°C 89% Calm Calm -- 30.12 in1020.0 mb - 0.00 in0.0 mm 0.00 in0.0 mm
03:35 AM 38.3°F3.5°C 35.4°F1.9°C 89% Calm Calm -- 30.12 in1020.0 mb - 0.00 in0.0 mm 0.00 in0.0 mm
03:40 AM 38.2°F3.4°C 35.2°F1.8°C 89% Calm Calm -- 30.12 in1020.0 mb - 0.00 in0.0 mm 0.00 in0.0 mm
03:45 AM 38.2°F3.4°C 35.2°F1.8°C 89% Calm Calm 1.2 mph1.9 kmh 30.12 in1020.0 mb - 0.00 in0.0 mm 0.00 in0.0 mm
03:50 AM 38.1°F3.4°C 35.1°F1.7°C 89% Calm Calm -- 30.12 in1020.0 mb - 0.00 in0.0 mm 0.00 in0.0 mm
03:55 AM 38.0°F3.3°C 35.1°F1.7°C 89% Calm Calm -- 30.12 in1020.0 mb - 0.00 in0.0 mm 0.00 in0.0 mm
04:00 AM 38.0°F3.3°C 35.0°F1.7°C 89% Calm Calm -- 30.12 in1020.0 mb - 0.00 in0.0 mm 0.00 in0.0 mm
04:05 AM 37.9°F3.3°C 34.9°F1.6°C 89% Calm Calm 1.2 mph1.9 kmh 30.12 in1020.0 mb - 0.00 in0.0 mm 0.00 in0.0 mm
04:10 AM 37.9°F3.3°C 34.9°F1.6°C 89% 1.2 mph WSW1.9 kmh WSW 2.3 mph3.7 kmh 30.12 in1020.0 mb - 0.00 in0.0 mm 0.00 in0.0 mm
04:15 AM 37.8°F3.2°C 35.1°F1.7°C 90% 1.2 mph WSW1.9 kmh WSW 2.3 mph3.7 kmh 30.12 in1020.0 mb - 0.00 in0.0 mm 0.00 in0.0 mm
04:20 AM 37.7°F3.2°C 35.0°F1.7°C 90% Calm Calm -- 30.12 in1020.0 mb - 0.00 in0.0 mm 0.00 in0.0 mm
04:25 AM 37.6°F3.1°C 34.9°F1.6°C 90% Calm Calm -- 30.12 in1020.0 mb - 0.00 in0.0 mm 0.00 in0.0 mm
04:30 AM 37.6°F3.1°C 34.9°F1.6°C 90% Calm Calm -- 30.12 in1020.0 mb - 0.00 in0.0 mm 0.00 in0.0 mm
04:35 AM 37.5°F3.1°C 34.6°F1.4°C 89% Calm Calm 1.2 mph1.9 kmh 30.12 in1020.0 mb - 0.00 in0.0 mm 0.00 in0.0 mm
04:40 AM 37.4°F3.0°C 34.7°F1.5°C 90% 1.2 mph SW1.9 kmh SW 2.3 mph3.7 kmh 30.12 in1020.0 mb - 0.00 in0.0 mm 0.00 in0.0 mm
04:45 AM 37.3°F2.9°C 34.6°F1.4°C 90% Calm Calm 1.2 mph1.9 kmh 30.12 in1020.0 mb - 0.00 in0.0 mm 0.00 in0.0 mm
04:50 AM 37.3°F2.9°C 34.6°F1.4°C 90% 1.2 mph WSW1.9 kmh WSW 2.3 mph3.7 kmh 30.12 in1020.0 mb - 0.00 in0.0 mm 0.00 in0.0 mm
04:55 AM 37.2°F2.9°C 34.5°F1.4°C 90% 1.2 mph WSW1.9 kmh WSW 3.5 mph5.6 kmh 30.12 in1020.0 mb - 0.00 in0.0 mm 0.00 in0.0 mm
05:00 AM 37.2°F2.9°C 34.5°F1.4°C 90% 1.2 mph WSW1.9 kmh WSW 3.5 mph5.6 kmh 30.13 in1020.3 mb - 0.00 in0.0 mm 0.00 in0.0 mm
05:05 AM 37.1°F2.8°C 34.4°F1.3°C 90% 2.3 mph WSW3.7 kmh WSW 3.5 mph5.6 kmh 30.12 in1020.0 mb - 0.00 in0.0 mm 0.00 in0.0 mm
05:10 AM 37.1°F2.8°C 34.4°F1.3°C 90% 1.2 mph WSW1.9 kmh WSW 2.3 mph3.7 kmh 30.13 in1020.3 mb - 0.00 in0.0 mm 0.00 in0.0 mm
05:15 AM 37.0°F2.8°C 34.3°F1.3°C 90% 1.2 mph SW1.9 kmh SW 2.3 mph3.7 kmh 30.13 in1020.3 mb - 0.00 in0.0 mm 0.00 in0.0 mm
05:20 AM 37.0°F2.8°C 34.3°F1.3°C 90% 1.2 mph WSW1.9 kmh WSW 2.3 mph3.7 kmh 30.13 in1020.3 mb - 0.00 in0.0 mm 0.00 in0.0 mm
05:25 AM 37.1°F2.8°C 34.4°F1.3°C 90% Calm Calm 2.3 mph3.7 kmh 30.13 in1020.3 mb - 0.00 in0.0 mm 0.00 in0.0 mm
05:30 AM 37.2°F2.9°C 34.5°F1.4°C 90% Calm Calm -- 30.12 in1020.0 mb - 0.00 in0.0 mm 0.00 in0.0 mm
05:35 AM 37.3°F2.9°C 34.6°F1.4°C 90% Calm Calm -- 30.13 in1020.3 mb - 0.00 in0.0 mm 0.00 in0.0 mm
05:40 AM 37.5°F3.1°C 35.1°F1.7°C 91% Calm Calm -- 30.13 in1020.3 mb - 0.00 in0.0 mm 0.00 in0.0 mm
05:45 AM 37.8°F3.2°C 35.1°F1.7°C 90% Calm Calm 1.2 mph1.9 kmh 30.13 in1020.3 mb - 0.00 in0.0 mm 0.00 in0.0 mm
05:50 AM 38.0°F3.3°C 35.3°F1.8°C 90% Calm Calm 1.2 mph1.9 kmh 30.13 in1020.3 mb - 0.00 in0.0 mm 0.00 in0.0 mm
05:55 AM 38.2°F3.4°C 35.5°F1.9°C 90% Calm Calm -- 30.13 in1020.3 mb - 0.00 in0.0 mm 0.00 in0.0 mm
06:00 AM 38.3°F3.5°C 35.6°F2.0°C 90% Calm Calm -- 30.13 in1020.3 mb - 0.00 in0.0 mm 0.00 in0.0 mm
06:05 AM 38.5°F3.6°C 35.8°F2.1°C 90% Calm Calm -- 30.13 in1020.3 mb - 0.00 in0.0 mm 0.00 in0.0 mm
06:10 AM 38.7°F3.7°C 36.0°F2.2°C 90% Calm Calm -- 30.13 in1020.3 mb - 0.00 in0.0 mm 0.00 in0.0 mm
06:15 AM 39.0°F3.9°C 36.3°F2.4°C 90% Calm Calm 2.3 mph3.7 kmh 30.13 in1020.3 mb - 0.00 in0.0 mm 0.00 in0.0 mm
06:20 AM 39.3°F4.1°C 36.6°F2.6°C 90% Calm Calm -- 30.13 in1020.3 mb - 0.00 in0.0 mm 0.00 in0.0 mm
06:25 AM 39.7°F4.3°C 37.0°F2.8°C 90% Calm Calm 2.3 mph3.7 kmh 30.13 in1020.3 mb - 0.00 in0.0 mm 0.00 in0.0 mm
06:30 AM 40.1°F4.5°C 37.4°F3.0°C 90% 2.3 mph WSW3.7 kmh WSW 3.5 mph5.6 kmh 30.13 in1020.3 mb - 0.00 in0.0 mm 0.00 in0.0 mm
06:35 AM 40.6°F4.8°C 37.6°F3.1°C 89% 3.5 mph SW5.6 kmh SW 4.6 mph7.4 kmh 30.13 in1020.3 mb - 0.00 in0.0 mm 0.00 in0.0 mm
06:40 AM 41.1°F5.1°C 38.1°F3.4°C 89% 2.3 mph SW3.7 kmh SW 3.5 mph5.6 kmh 30.13 in1020.3 mb - 0.00 in0.0 mm 0.00 in0.0 mm
06:45 AM 41.5°F5.3°C 38.5°F3.6°C 89% Calm Calm 1.2 mph1.9 kmh 30.13 in1020.3 mb - 0.00 in0.0 mm 0.00 in0.0 mm
06:50 AM 41.9°F5.5°C 38.9°F3.8°C 89% Calm Calm 1.2 mph1.9 kmh 30.13 in1020.3 mb - 0.00 in0.0 mm 0.00 in0.0 mm
06:55 AM 42.3°F5.7°C 39.3°F4.1°C 89% 1.2 mph WNW1.9 kmh WNW 1.2 mph1.9 kmh 30.13 in1020.3 mb - 0.00 in0.0 mm 0.00 in0.0 mm
07:00 AM 42.9°F6.1°C 39.9°F4.4°C 89% 1.2 mph WSW1.9 kmh WSW 1.2 mph1.9 kmh 30.13 in1020.3 mb - 0.00 in0.0 mm 0.00 in0.0 mm
07:05 AM 43.5°F6.4°C 40.2°F4.6°C 88% 1.2 mph WNW1.9 kmh WNW 2.3 mph3.7 kmh 30.13 in1020.3 mb - 0.00 in0.0 mm 0.00 in0.0 mm
07:10 AM 44.0°F6.7°C 40.7°F4.8°C 88% Calm Calm 1.2 mph1.9 kmh 30.13 in1020.3 mb - 0.00 in0.0 mm 0.00 in0.0 mm
07:15 AM 44.7°F7.1°C 41.0°F5.0°C 87% Calm Calm 2.3 mph3.7 kmh 30.13 in1020.3 mb - 0.00 in0.0 mm 0.00 in0.0 mm
07:20 AM 45.2°F7.3°C 41.3°F5.2°C 86% Calm Calm -- 30.13 in1020.3 mb - 0.00 in0.0 mm 0.00 in0.0 mm
07:25 AM 45.8°F7.7°C 41.5°F5.3°C 85% Calm Calm -- 30.13 in1020.3 mb - 0.00 in0.0 mm 0.00 in0.0 mm
07:30 AM 46.3°F7.9°C 41.7°F5.4°C 84% Calm Calm 1.2 mph1.9 kmh 30.13 in1020.3 mb - 0.00 in0.0 mm 0.00 in0.0 mm
07:35 AM 46.9°F8.3°C 42.3°F5.7°C 84% Calm Calm 1.2 mph1.9 kmh 30.13 in1020.3 mb - 0.00 in0.0 mm 0.00 in0.0 mm
07:40 AM 47.6°F8.7°C 42.7°F5.9°C 83% Calm Calm 1.2 mph1.9 kmh 30.13 in1020.3 mb - 0.00 in0.0 mm 0.00 in0.0 mm
07:45 AM 48.2°F9.0°C 42.7°F5.9°C 81% Calm Calm -- 30.13 in1020.3 mb - 0.00 in0.0 mm 0.00 in0.0 mm
07:50 AM 48.7°F9.3°C 43.4°F6.3°C 82% Calm Calm 1.2 mph1.9 kmh 30.13 in1020.3 mb - 0.00 in0.0 mm 0.00 in0.0 mm
07:55 AM 49.4°F9.7°C 43.5°F6.4°C 80% Calm Calm 1.2 mph1.9 kmh 30.13 in1020.3 mb - 0.00 in0.0 mm 0.00 in0.0 mm
08:00 AM 50.2°F10.1°C 43.7°F6.5°C 78% Calm Calm -- 30.13 in1020.3 mb - 0.00 in0.0 mm 0.00 in0.0 mm
08:05 AM 51.0°F10.6°C 43.0°F6.1°C 74% Calm Calm 1.2 mph1.9 kmh 30.13 in1020.3 mb - 0.00 in0.0 mm 0.00 in0.0 mm
08:10 AM 51.4°F10.8°C 43.0°F6.1°C 73% Calm Calm 1.2 mph1.9 kmh 30.13 in1020.3 mb - 0.00 in0.0 mm 0.00 in0.0 mm
08:15 AM 51.7°F10.9°C 42.9°F6.1°C 72% Calm Calm 2.3 mph3.7 kmh 30.13 in1020.3 mb - 0.00 in0.0 mm 0.00 in0.0 mm
08:20 AM 52.0°F11.1°C 42.9°F6.1°C 71% Calm Calm -- 30.13 in1020.3 mb - 0.00 in0.0 mm 0.00 in0.0 mm
08:25 AM 52.1°F11.2°C 43.0°F6.1°C 71% 1.2 mph NW1.9 kmh NW 2.3 mph3.7 kmh 30.13 in1020.3 mb - 0.00 in0.0 mm 0.00 in0.0 mm
08:30 AM 52.5°F11.4°C 43.0°F6.1°C 70% 1.2 mph NW1.9 kmh NW 2.3 mph3.7 kmh 30.13 in1020.3 mb - 0.00 in0.0 mm 0.00 in0.0 mm
08:35 AM 53.0°F11.7°C 43.5°F6.4°C 70% Calm Calm 2.3 mph3.7 kmh 30.13 in1020.3 mb - 0.00 in0.0 mm 0.00 in0.0 mm
08:40 AM 53.7°F12.1°C 43.4°F6.3°C 68% Calm Calm 1.2 mph1.9 kmh 30.12 in1020.0 mb - 0.00 in0.0 mm 0.00 in0.0 mm
08:45 AM 53.9°F12.2°C 43.6°F6.4°C 68% Calm Calm 3.5 mph5.6 kmh 30.12 in1020.0 mb - 0.00 in0.0 mm 0.00 in0.0 mm
08:50 AM 54.3°F12.4°C 43.2°F6.2°C 66% Calm Calm -- 30.12 in1020.0 mb - 0.00 in0.0 mm 0.00 in0.0 mm
08:55 AM 55.2°F12.9°C 43.6°F6.4°C 65% Calm Calm 1.2 mph1.9 kmh 30.12 in1020.0 mb - 0.00 in0.0 mm 0.00 in0.0 mm
09:00 AM 55.8°F13.2°C 44.7°F7.1°C 66% Calm Calm 2.3 mph3.7 kmh 30.13 in1020.3 mb - 0.00 in0.0 mm 0.00 in0.0 mm
09:05 AM 56.3°F13.5°C 44.3°F6.8°C 64% Calm Calm 3.5 mph5.6 kmh 30.12 in1020.0 mb - 0.00 in0.0 mm 0.00 in0.0 mm
09:10 AM 56.7°F13.7°C 45.9°F7.7°C 67% 1.2 mph NNE1.9 kmh NNE 3.5 mph5.6 kmh 30.13 in1020.3 mb - 0.00 in0.0 mm 0.00 in0.0 mm
09:15 AM 57.1°F13.9°C 45.5°F7.5°C 65% 2.3 mph E3.7 kmh E 3.5 mph5.6 kmh 30.13 in1020.3 mb - 0.00 in0.0 mm 0.00 in0.0 mm
09:20 AM 57.2°F14.0°C 45.1°F7.3°C 64% 4.6 mph NE7.4 kmh NE 4.6 mph7.4 kmh 30.12 in1020.0 mb - 0.00 in0.0 mm 0.00 in0.0 mm
09:25 AM 57.2°F14.0°C 45.1°F7.3°C 64% 2.3 mph NNE3.7 kmh NNE 3.5 mph5.6 kmh 30.12 in1020.0 mb - 0.00 in0.0 mm 0.00 in0.0 mm
09:30 AM 57.2°F14.0°C 45.1°F7.3°C 64% 4.6 mph NNE7.4 kmh NNE 11.5 mph18.5 kmh 30.12 in1020.0 mb - 0.00 in0.0 mm 0.00 in0.0 mm
09:35 AM 57.3°F14.1°C 44.8°F7.1°C 63% 5.8 mph NE9.3 kmh NE 6.9 mph11.1 kmh 30.12 in1020.0 mb - 0.00 in0.0 mm 0.00 in0.0 mm
09:40 AM 57.5°F14.2°C 44.6°F7.0°C 62% 3.5 mph NE5.6 kmh NE 4.6 mph7.4 kmh 30.12 in1020.0 mb - 0.00 in0.0 mm 0.00 in0.0 mm
09:45 AM 58.0°F14.4°C 45.5°F7.5°C 63% 1.2 mph ENE1.9 kmh ENE 3.5 mph5.6 kmh 30.12 in1020.0 mb - 0.00 in0.0 mm 0.00 in0.0 mm
09:50 AM 58.8°F14.9°C 45.4°F7.4°C 61% 2.3 mph ENE3.7 kmh ENE 4.6 mph7.4 kmh 30.12 in1020.0 mb - 0.00 in0.0 mm 0.00 in0.0 mm
09:55 AM 59.1°F15.1°C 45.6°F7.6°C 61% Calm Calm 3.5 mph5.6 kmh 30.12 in1020.0 mb - 0.00 in0.0 mm 0.00 in0.0 mm
10:00 AM 59.4°F15.2°C 45.9°F7.7°C 61% 3.5 mph ESE5.6 kmh ESE 3.5 mph5.6 kmh 30.12 in1020.0 mb - 0.00 in0.0 mm 0.00 in0.0 mm
10:05 AM 59.6°F15.3°C 46.1°F7.8°C 61% 3.5 mph E5.6 kmh E 6.9 mph11.1 kmh 30.12 in1020.0 mb - 0.00 in0.0 mm 0.00 in0.0 mm
10:10 AM 60.0°F15.6°C 46.0°F7.8°C 60% 3.5 mph E5.6 kmh E 6.9 mph11.1 kmh 30.12 in1020.0 mb - 0.00 in0.0 mm 0.00 in0.0 mm
10:15 AM 60.2°F15.7°C 46.3°F7.9°C 60% 3.5 mph ESE5.6 kmh ESE 5.8 mph9.3 kmh 30.12 in1020.0 mb - 0.00 in0.0 mm 0.00 in0.0 mm
10:25 AM 60.0°F15.6°C 46.5°F8.1°C 61% 2.3 mph S3.7 kmh S 4.6 mph7.4 kmh 30.11 in1019.6 mb - 0.00 in0.0 mm 0.00 in0.0 mm
10:30 AM 60.0°F15.6°C 45.6°F7.6°C 59% 1.2 mph NE1.9 kmh NE 3.5 mph5.6 kmh 30.11 in1019.6 mb - 0.00 in0.0 mm 0.00 in0.0 mm
10:35 AM 60.1°F15.6°C 46.2°F7.9°C 60% 2.3 mph ESE3.7 kmh ESE 3.5 mph5.6 kmh 30.11 in1019.6 mb - 0.00 in0.0 mm 0.00 in0.0 mm
10:40 AM 60.2°F15.7°C 46.7°F8.2°C 61% 1.2 mph ENE1.9 kmh ENE 3.5 mph5.6 kmh 30.11 in1019.6 mb - 0.00 in0.0 mm 0.00 in0.0 mm
10:45 AM 61.1°F16.2°C 48.0°F8.9°C 62% 2.3 mph E3.7 kmh E 5.8 mph9.3 kmh 30.11 in1019.6 mb - 0.00 in0.0 mm 0.00 in0.0 mm
10:50 AM 61.5°F16.4°C 45.6°F7.6°C 56% 1.2 mph S1.9 kmh S 1.2 mph1.9 kmh 30.11 in1019.6 mb - 0.00 in0.0 mm 0.00 in0.0 mm
10:55 AM 60.9°F16.1°C 45.1°F7.3°C 56% 3.5 mph S5.6 kmh S 8.1 mph13.0 kmh 30.11 in1019.6 mb - 0.00 in0.0 mm 0.00 in0.0 mm
11:00 AM 61.1°F16.2°C 46.2°F7.9°C 58% 4.6 mph S7.4 kmh S 5.8 mph9.3 kmh 30.11 in1019.6 mb - 0.00 in0.0 mm 0.00 in0.0 mm
11:05 AM 60.3°F15.7°C 45.5°F7.5°C 58% 3.5 mph SSE5.6 kmh SSE 6.9 mph11.1 kmh 30.10 in1019.3 mb - 0.00 in0.0 mm 0.00 in0.0 mm
11:10 AM 59.7°F15.4°C 44.4°F6.9°C 57% 2.3 mph S3.7 kmh S 3.5 mph5.6 kmh 30.10 in1019.3 mb - 0.00 in0.0 mm 0.00 in0.0 mm
11:15 AM 59.5°F15.3°C 44.7°F7.1°C 58% Calm Calm 1.2 mph1.9 kmh 30.10 in1019.3 mb - 0.00 in0.0 mm 0.00 in0.0 mm
11:20 AM 59.9°F15.5°C 44.6°F7.0°C 57% Calm Calm -- 30.10 in1019.3 mb - 0.00 in0.0 mm 0.00 in0.0 mm
11:25 AM 61.1°F16.2°C 45.3°F7.4°C 56% 2.3 mph SW3.7 kmh SW 6.9 mph11.1 kmh 30.10 in1019.3 mb - 0.00 in0.0 mm 0.00 in0.0 mm
11:30 AM 62.0°F16.7°C 45.1°F7.3°C 54% 6.9 mph SW11.1 kmh SW 11.5 mph18.5 kmh 30.09 in1019.0 mb - 0.00 in0.0 mm 0.00 in0.0 mm
11:35 AM 61.3°F16.3°C 45.0°F7.2°C 55% 4.6 mph SSE7.4 kmh SSE 8.1 mph13.0 kmh 30.10 in1019.3 mb - 0.00 in0.0 mm 0.00 in0.0 mm
11:40 AM 61.3°F16.3°C 44.5°F6.9°C 54% 5.8 mph SE9.3 kmh SE 9.2 mph14.8 kmh 30.09 in1019.0 mb - 0.00 in0.0 mm 0.00 in0.0 mm
11:45 AM 61.8°F16.6°C 44.0°F6.7°C 52% 2.3 mph SE3.7 kmh SE 8.1 mph13.0 kmh 30.09 in1019.0 mb - 0.00 in0.0 mm 0.00 in0.0 mm
11:50 AM 62.0°F16.7°C 43.6°F6.4°C 51% 4.6 mph SW7.4 kmh SW 9.2 mph14.8 kmh 30.09 in1019.0 mb - 0.00 in0.0 mm 0.00 in0.0 mm
11:55 AM 62.0°F16.7°C 43.7°F6.5°C 51% 3.5 mph SSE5.6 kmh SSE 6.9 mph11.1 kmh 30.09 in1019.0 mb - 0.00 in0.0 mm 0.00 in0.0 mm
12:00 PM 61.7°F16.5°C 44.4°F6.9°C 53% 5.8 mph S9.3 kmh S 11.5 mph18.5 kmh 30.09 in1019.0 mb - 0.00 in0.0 mm 0.00 in0.0 mm
12:05 PM 62.3°F16.8°C 45.4°F7.4°C 54% 6.9 mph SSE11.1 kmh SSE 11.5 mph18.5 kmh 30.09 in1019.0 mb - 0.00 in0.0 mm 0.00 in0.0 mm
12:10 PM 62.0°F16.7°C 44.6°F7.0°C 53% 3.5 mph S5.6 kmh S 5.8 mph9.3 kmh 30.09 in1019.0 mb - 0.00 in0.0 mm 0.00 in0.0 mm
12:15 PM 61.7°F16.5°C 44.8°F7.1°C 54% 3.5 mph E5.6 kmh E 8.1 mph13.0 kmh 30.09 in1019.0 mb - 0.00 in0.0 mm 0.00 in0.0 mm
12:20 PM 62.6°F17.0°C 44.7°F7.1°C 52% 3.5 mph ESE5.6 kmh ESE 3.5 mph5.6 kmh 30.09 in1019.0 mb - 0.00 in0.0 mm 0.00 in0.0 mm
12:25 PM 62.9°F17.2°C 46.0°F7.8°C 54% 5.8 mph SSW9.3 kmh SSW 9.2 mph14.8 kmh 30.09 in1019.0 mb - 0.00 in0.0 mm 0.00 in0.0 mm
12:30 PM 62.8°F17.1°C 45.9°F7.7°C 54% 3.5 mph SE5.6 kmh SE 6.9 mph11.1 kmh 30.09 in1019.0 mb - 0.00 in0.0 mm 0.00 in0.0 mm
12:35 PM 62.3°F16.8°C 45.9°F7.7°C 55% 3.5 mph SE5.6 kmh SE 6.9 mph11.1 kmh 30.09 in1019.0 mb - 0.00 in0.0 mm 0.00 in0.0 mm
12:40 PM 62.4°F16.9°C 47.0°F8.3°C 57% 4.6 mph SSE7.4 kmh SSE 9.2 mph14.8 kmh 30.09 in1019.0 mb - 0.00 in0.0 mm 0.00 in0.0 mm
12:45 PM 62.9°F17.2°C 46.0°F7.8°C 54% 5.8 mph SE9.3 kmh SE 8.1 mph13.0 kmh 30.09 in1019.0 mb - 0.00 in0.0 mm 0.00 in0.0 mm
12:50 PM 61.8°F16.6°C 46.9°F8.3°C 58% 4.6 mph SSE7.4 kmh SSE 9.2 mph14.8 kmh 30.08 in1018.6 mb - 0.00 in0.0 mm 0.00 in0.0 mm
12:55 PM 62.3°F16.8°C 45.9°F7.7°C 55% 3.5 mph SSW5.6 kmh SSW 8.1 mph13.0 kmh 30.08 in1018.6 mb - 0.00 in0.0 mm 0.00 in0.0 mm
01:00 PM 62.6°F17.0°C 47.2°F8.4°C 57% 3.5 mph SE5.6 kmh SE 3.5 mph5.6 kmh 30.08 in1018.6 mb - 0.00 in0.0 mm 0.00 in0.0 mm
01:05 PM 62.1°F16.7°C 46.2°F7.9°C 56% 4.6 mph E7.4 kmh E 6.9 mph11.1 kmh 30.08 in1018.6 mb - 0.00 in0.0 mm 0.00 in0.0 mm
01:10 PM 61.5°F16.4°C 46.1°F7.8°C 57% 4.6 mph E7.4 kmh E 8.1 mph13.0 kmh 30.08 in1018.6 mb - 0.00 in0.0 mm 0.00 in0.0 mm
01:15 PM 62.0°F16.7°C 47.5°F8.6°C 59% 4.6 mph S7.4 kmh S 10.4 mph16.7 kmh 30.08 in1018.6 mb - 0.00 in0.0 mm 0.00 in0.0 mm
01:20 PM 61.9°F16.6°C 46.5°F8.1°C 57% 4.6 mph S7.4 kmh S 6.9 mph11.1 kmh 30.08 in1018.6 mb - 0.00 in0.0 mm 0.00 in0.0 mm
01:25 PM 61.7°F16.5°C 46.8°F8.2°C 58% 5.8 mph SSE9.3 kmh SSE 11.5 mph18.5 kmh 30.08 in1018.6 mb - 0.00 in0.0 mm 0.00 in0.0 mm
01:30 PM 61.2°F16.2°C 46.8°F8.2°C 59% 3.5 mph SE5.6 kmh SE 4.6 mph7.4 kmh 30.08 in1018.6 mb - 0.00 in0.0 mm 0.00 in0.0 mm
01:35 PM 61.2°F16.2°C 46.8°F8.2°C 59% 4.6 mph SE7.4 kmh SE 8.1 mph13.0 kmh 30.08 in1018.6 mb - 0.00 in0.0 mm 0.00 in0.0 mm
01:40 PM 61.3°F16.3°C 47.7°F8.7°C 61% 2.3 mph SE3.7 kmh SE 3.5 mph5.6 kmh 30.08 in1018.6 mb - 0.00 in0.0 mm 0.00 in0.0 mm
01:45 PM 61.3°F16.3°C 46.4°F8.0°C 58% 3.5 mph SSE5.6 kmh SSE 3.5 mph5.6 kmh 30.07 in1018.3 mb - 0.00 in0.0 mm 0.00 in0.0 mm
01:50 PM 61.0°F16.1°C 47.0°F8.3°C 60% 2.3 mph SE3.7 kmh SE 6.9 mph11.1 kmh 30.07 in1018.3 mb - 0.00 in0.0 mm 0.00 in0.0 mm
01:55 PM 60.9°F16.1°C 46.9°F8.3°C 60% 3.5 mph SE5.6 kmh SE 6.9 mph11.1 kmh 30.07 in1018.3 mb - 0.00 in0.0 mm 0.00 in0.0 mm
02:00 PM 61.4°F16.3°C 46.5°F8.1°C 58% 4.6 mph S7.4 kmh S 6.9 mph11.1 kmh 30.07 in1018.3 mb - 0.00 in0.0 mm 0.00 in0.0 mm
02:05 PM 61.4°F16.3°C 46.4°F8.0°C 58% 5.8 mph SSE9.3 kmh SSE 6.9 mph11.1 kmh 30.07 in1018.3 mb - 0.00 in0.0 mm 0.00 in0.0 mm
02:10 PM 61.0°F16.1°C 47.0°F8.3°C 60% 4.6 mph SSW7.4 kmh SSW 6.9 mph11.1 kmh 30.07 in1018.3 mb - 0.00 in0.0 mm 0.00 in0.0 mm
02:15 PM 61.4°F16.3°C 47.4°F8.6°C 60% 2.3 mph S3.7 kmh S 4.6 mph7.4 kmh 30.07 in1018.3 mb - 0.00 in0.0 mm 0.00 in0.0 mm
02:20 PM 62.0°F16.7°C 47.5°F8.6°C 59% 3.5 mph SSE5.6 kmh SSE 8.1 mph13.0 kmh 30.07 in1018.3 mb - 0.00 in0.0 mm 0.00 in0.0 mm
02:25 PM 61.8°F16.6°C 47.4°F8.6°C 59% 3.5 mph SE5.6 kmh SE 8.1 mph13.0 kmh 30.07 in1018.3 mb - 0.00 in0.0 mm 0.00 in0.0 mm
02:30 PM 61.7°F16.5°C 47.2°F8.4°C 59% 4.6 mph SSE7.4 kmh SSE 6.9 mph11.1 kmh 30.07 in1018.3 mb - 0.00 in0.0 mm 0.00 in0.0 mm
02:35 PM 61.9°F16.6°C 47.4°F8.6°C 59% 6.9 mph SSE11.1 kmh SSE 11.5 mph18.5 kmh 30.07 in1018.3 mb - 0.00 in0.0 mm 0.00 in0.0 mm
02:40 PM 61.9°F16.6°C 47.4°F8.6°C 59% 6.9 mph SE11.1 kmh SE 11.5 mph18.5 kmh 30.07 in1018.3 mb - 0.00 in0.0 mm 0.00 in0.0 mm
02:45 PM 61.2°F16.2°C 47.2°F8.4°C 60% 3.5 mph S5.6 kmh S 6.9 mph11.1 kmh 30.07 in1018.3 mb - 0.00 in0.0 mm 0.00 in0.0 mm
02:50 PM 60.7°F15.9°C 47.6°F8.7°C 62% 2.3 mph SSE3.7 kmh SSE 3.5 mph5.6 kmh 30.06 in1017.9 mb - 0.00 in0.0 mm 0.00 in0.0 mm
02:55 PM 60.4°F15.8°C 46.9°F8.3°C 61% 3.5 mph S5.6 kmh S 10.4 mph16.7 kmh 30.07 in1018.3 mb - 0.00 in0.0 mm 0.00 in0.0 mm
03:00 PM 60.3°F15.7°C 47.3°F8.5°C 62% 4.6 mph SE7.4 kmh SE 4.6 mph7.4 kmh 30.06 in1017.9 mb - 0.00 in0.0 mm 0.00 in0.0 mm
03:05 PM 61.2°F16.2°C 47.6°F8.7°C 61% 5.8 mph S9.3 kmh S 10.4 mph16.7 kmh 30.06 in1017.9 mb - 0.00 in0.0 mm 0.00 in0.0 mm
03:10 PM 61.2°F16.2°C 46.3°F7.9°C 58% 3.5 mph SE5.6 kmh SE 3.5 mph5.6 kmh 30.06 in1017.9 mb - 0.00 in0.0 mm 0.00 in0.0 mm
03:15 PM 61.1°F16.2°C 46.7°F8.2°C 59% 5.8 mph SSE9.3 kmh SSE 6.9 mph11.1 kmh 30.06 in1017.9 mb - 0.00 in0.0 mm 0.00 in0.0 mm
03:20 PM 61.5°F16.4°C 47.0°F8.3°C 59% 3.5 mph SE5.6 kmh SE 9.2 mph14.8 kmh 30.06 in1017.9 mb - 0.00 in0.0 mm 0.00 in0.0 mm
03:25 PM 61.6°F16.4°C 46.7°F8.2°C 58% 4.6 mph S7.4 kmh S 6.9 mph11.1 kmh 30.06 in1017.9 mb - 0.00 in0.0 mm 0.00 in0.0 mm
03:30 PM 61.2°F16.2°C 46.3°F7.9°C 58% 4.6 mph SW7.4 kmh SW 10.4 mph16.7 kmh 30.06 in1017.9 mb - 0.00 in0.0 mm 0.00 in0.0 mm
03:35 PM 60.8°F16.0°C 46.8°F8.2°C 60% 3.5 mph SSE5.6 kmh SSE 5.8 mph9.3 kmh 30.06 in1017.9 mb - 0.00 in0.0 mm 0.00 in0.0 mm
03:40 PM 61.1°F16.2°C 47.1°F8.4°C 60% 5.8 mph S9.3 kmh S 11.5 mph18.5 kmh 30.05 in1017.6 mb - 0.00 in0.0 mm 0.00 in0.0 mm
04:05 PM 61.3°F16.3°C 46.8°F8.2°C 59% 3.5 mph S5.6 kmh S 5.8 mph9.3 kmh 30.05 in1017.6 mb - 0.00 in0.0 mm 0.00 in0.0 mm
04:10 PM 61.3°F16.3°C 47.3°F8.5°C 60% 5.8 mph SW9.3 kmh SW 11.5 mph18.5 kmh 30.05 in1017.6 mb - 0.00 in0.0 mm 0.00 in0.0 mm
04:15 PM 61.0°F16.1°C 47.0°F8.3°C 60% 5.8 mph SSE9.3 kmh SSE 11.5 mph18.5 kmh 30.05 in1017.6 mb - 0.00 in0.0 mm 0.00 in0.0 mm
04:25 PM 60.7°F15.9°C 51.6°F10.9°C 72% 4.6 mph S7.4 kmh S 8.1 mph13.0 kmh 30.05 in1017.6 mb - 0.00 in0.0 mm 0.00 in0.0 mm
04:30 PM 61.0°F16.1°C 47.9°F8.8°C 62% 4.6 mph S7.4 kmh S 9.2 mph14.8 kmh 30.05 in1017.6 mb - 0.00 in0.0 mm 0.00 in0.0 mm
04:35 PM 61.0°F16.1°C 47.4°F8.6°C 61% 5.8 mph S9.3 kmh S 9.2 mph14.8 kmh 30.05 in1017.6 mb - 0.00 in0.0 mm 0.00 in0.0 mm
04:40 PM 60.8°F16.0°C 47.7°F8.7°C 62% 6.9 mph SW11.1 kmh SW 10.4 mph16.7 kmh 30.05 in1017.6 mb - 0.00 in0.0 mm 0.00 in0.0 mm
04:45 PM 60.4°F15.8°C 47.3°F8.5°C 62% 4.6 mph SSW7.4 kmh SSW 8.1 mph13.0 kmh 30.05 in1017.6 mb - 0.00 in0.0 mm 0.00 in0.0 mm
04:50 PM 60.3°F15.7°C 47.2°F8.4°C 62% 4.6 mph SSW7.4 kmh SSW 9.2 mph14.8 kmh 30.05 in1017.6 mb - 0.00 in0.0 mm 0.00 in0.0 mm
04:55 PM 60.4°F15.8°C 47.7°F8.7°C 63% 4.6 mph S7.4 kmh S 8.1 mph13.0 kmh 30.05 in1017.6 mb - 0.00 in0.0 mm 0.00 in0.0 mm
05:05 PM 60.9°F16.1°C 47.4°F8.6°C 61% 9.2 mph SSE14.8 kmh SSE 5.8 mph9.3 kmh 30.05 in1017.6 mb - 0.00 in0.0 mm 0.00 in0.0 mm
05:10 PM 60.6°F15.9°C 47.5°F8.6°C 62% 5.8 mph S9.3 kmh S 8.1 mph13.0 kmh 30.04 in1017.3 mb - 0.00 in0.0 mm 0.00 in0.0 mm
05:15 PM 60.5°F15.8°C 47.4°F8.6°C 62% 2.3 mph SE3.7 kmh SE 4.6 mph7.4 kmh 30.04 in1017.3 mb - 0.00 in0.0 mm 0.00 in0.0 mm
05:20 PM 60.4°F15.8°C 47.3°F8.5°C 62% 6.9 mph SSE11.1 kmh SSE 9.2 mph14.8 kmh 30.04 in1017.3 mb - 0.00 in0.0 mm 0.00 in0.0 mm
05:25 PM 59.9°F15.5°C 47.2°F8.4°C 63% 5.8 mph S9.3 kmh S 11.5 mph18.5 kmh 30.04 in1017.3 mb - 0.00 in0.0 mm 0.00 in0.0 mm
05:30 PM 59.5°F15.3°C 46.9°F8.3°C 63% 4.6 mph S7.4 kmh S 9.2 mph14.8 kmh 30.04 in1017.3 mb - 0.00 in0.0 mm 0.00 in0.0 mm
05:35 PM 59.4°F15.2°C 46.8°F8.2°C 63% 4.6 mph SSE7.4 kmh SSE 6.9 mph11.1 kmh 30.04 in1017.3 mb - 0.00 in0.0 mm 0.00 in0.0 mm
05:40 PM 59.4°F15.2°C 46.8°F8.2°C 63% 4.6 mph S7.4 kmh S 6.9 mph11.1 kmh 30.04 in1017.3 mb - 0.00 in0.0 mm 0.00 in0.0 mm
05:45 PM 59.1°F15.1°C 47.3°F8.5°C 65% 3.5 mph S5.6 kmh S 5.8 mph9.3 kmh 30.04 in1017.3 mb - 0.00 in0.0 mm 0.00 in0.0 mm
05:50 PM 58.7°F14.8°C 47.4°F8.6°C 66% 1.2 mph S1.9 kmh S 3.5 mph5.6 kmh 30.04 in1017.3 mb - 0.00 in0.0 mm 0.00 in0.0 mm
05:55 PM 58.6°F14.8°C 47.7°F8.7°C 67% 3.5 mph SSW5.6 kmh SSW 5.8 mph9.3 kmh 30.04 in1017.3 mb - 0.00 in0.0 mm 0.00 in0.0 mm
06:00 PM 58.5°F14.7°C 47.6°F8.7°C 67% 3.5 mph S5.6 kmh S 6.9 mph11.1 kmh 30.04 in1017.3 mb - 0.00 in0.0 mm 0.00 in0.0 mm
06:05 PM 58.4°F14.7°C 47.9°F8.8°C 68% 1.2 mph S1.9 kmh S 3.5 mph5.6 kmh 30.04 in1017.3 mb - 0.00 in0.0 mm 0.00 in0.0 mm
06:10 PM 58.4°F14.7°C 47.5°F8.6°C 67% 2.3 mph S3.7 kmh S 2.3 mph3.7 kmh 30.04 in1017.3 mb - 0.00 in0.0 mm 0.00 in0.0 mm
06:15 PM 58.4°F14.7°C 47.5°F8.6°C 67% 1.2 mph S1.9 kmh S 3.5 mph5.6 kmh 30.04 in1017.3 mb - 0.00 in0.0 mm 0.00 in0.0 mm
06:20 PM 58.3°F14.6°C 47.4°F8.6°C 67% 2.3 mph S3.7 kmh S 3.5 mph5.6 kmh 30.04 in1017.3 mb - 0.00 in0.0 mm 0.00 in0.0 mm
06:25 PM 58.1°F14.5°C 47.6°F8.7°C 68% 2.3 mph SSW3.7 kmh SSW 3.5 mph5.6 kmh 30.04 in1017.3 mb - 0.00 in0.0 mm 0.00 in0.0 mm
06:30 PM 57.8°F14.3°C 47.3°F8.5°C 68% 1.2 mph SSW1.9 kmh SSW 3.5 mph5.6 kmh 30.03 in1016.9 mb - 0.00 in0.0 mm 0.00 in0.0 mm
06:35 PM 57.5°F14.2°C 47.4°F8.6°C 69% 1.2 mph S1.9 kmh S 3.5 mph5.6 kmh 30.03 in1016.9 mb - 0.00 in0.0 mm 0.00 in0.0 mm
06:40 PM 57.3°F14.1°C 47.6°F8.7°C 70% 1.2 mph S1.9 kmh S 3.5 mph5.6 kmh 30.03 in1016.9 mb - 0.00 in0.0 mm 0.00 in0.0 mm
06:45 PM 57.1°F13.9°C 47.4°F8.6°C 70% 1.2 mph S1.9 kmh S 2.3 mph3.7 kmh 30.03 in1016.9 mb - 0.00 in0.0 mm 0.00 in0.0 mm
06:50 PM 56.9°F13.8°C 47.6°F8.7°C 71% 2.3 mph S3.7 kmh S 3.5 mph5.6 kmh 30.03 in1016.9 mb - 0.00 in0.0 mm 0.00 in0.0 mm
06:55 PM 56.6°F13.7°C 47.3°F8.5°C 71% 2.3 mph SSW3.7 kmh SSW 3.5 mph5.6 kmh 30.03 in1016.9 mb - 0.00 in0.0 mm 0.00 in0.0 mm
07:00 PM 56.3°F13.5°C 47.3°F8.5°C 72% 2.3 mph S3.7 kmh S 3.5 mph5.6 kmh 30.04 in1017.3 mb - 0.00 in0.0 mm 0.00 in0.0 mm
07:05 PM 56.0°F13.3°C 47.5°F8.6°C 73% 2.3 mph SSW3.7 kmh SSW 4.6 mph7.4 kmh 30.04 in1017.3 mb - 0.00 in0.0 mm 0.00 in0.0 mm
07:10 PM 55.7°F13.2°C 47.2°F8.4°C 73% 3.5 mph SSW5.6 kmh SSW 4.6 mph7.4 kmh 30.04 in1017.3 mb - 0.00 in0.0 mm 0.00 in0.0 mm
07:15 PM 55.5°F13.1°C 47.0°F8.3°C 73% 2.3 mph SW3.7 kmh SW 3.5 mph5.6 kmh 30.04 in1017.3 mb - 0.00 in0.0 mm 0.00 in0.0 mm
07:20 PM 55.3°F12.9°C 47.2°F8.4°C 74% 2.3 mph SW3.7 kmh SW 3.5 mph5.6 kmh 30.04 in1017.3 mb - 0.00 in0.0 mm 0.00 in0.0 mm
07:25 PM 55.1°F12.8°C 47.0°F8.3°C 74% 1.2 mph SSW1.9 kmh SSW 2.3 mph3.7 kmh 30.04 in1017.3 mb - 0.00 in0.0 mm 0.00 in0.0 mm
07:30 PM 54.9°F12.7°C 47.1°F8.4°C 75% 1.2 mph S1.9 kmh S 3.5 mph5.6 kmh 30.04 in1017.3 mb - 0.00 in0.0 mm 0.00 in0.0 mm
07:35 PM 54.6°F12.6°C 46.9°F8.3°C 75% Calm Calm 3.5 mph5.6 kmh 30.04 in1017.3 mb - 0.00 in0.0 mm 0.00 in0.0 mm
07:40 PM 54.4°F12.4°C 47.0°F8.3°C 76% 2.3 mph S3.7 kmh S 3.5 mph5.6 kmh 30.04 in1017.3 mb - 0.00 in0.0 mm 0.00 in0.0 mm
07:45 PM 54.2°F12.3°C 46.8°F8.2°C 76% 2.3 mph SSW3.7 kmh SSW 3.5 mph5.6 kmh 30.04 in1017.3 mb - 0.00 in0.0 mm 0.00 in0.0 mm
07:50 PM 53.9°F12.2°C 46.5°F8.1°C 76% 1.2 mph SSW1.9 kmh SSW 3.5 mph5.6 kmh 30.04 in1017.3 mb - 0.00 in0.0 mm 0.00 in0.0 mm
07:55 PM 53.7°F12.1°C 46.3°F7.9°C 76% Calm Calm -- 30.04 in1017.3 mb - 0.00 in0.0 mm 0.00 in0.0 mm
08:00 PM 53.4°F11.9°C 46.4°F8.0°C 77% 1.2 mph S1.9 kmh S 3.5 mph5.6 kmh 30.04 in1017.3 mb - 0.00 in0.0 mm 0.00 in0.0 mm
08:05 PM 53.2°F11.8°C 46.2°F7.9°C 77% Calm Calm 1.2 mph1.9 kmh 30.04 in1017.3 mb - 0.00 in0.0 mm 0.00 in0.0 mm
08:10 PM 53.0°F11.7°C 46.3°F7.9°C 78% Calm Calm -- 30.04 in1017.3 mb - 0.00 in0.0 mm 0.00 in0.0 mm
08:15 PM 52.8°F11.6°C 46.1°F7.8°C 78% Calm Calm -- 30.04 in1017.3 mb - 0.00 in0.0 mm 0.00 in0.0 mm
08:20 PM 52.6°F11.4°C 45.9°F7.7°C 78% Calm Calm -- 30.04 in1017.3 mb - 0.00 in0.0 mm 0.00 in0.0 mm
08:25 PM 52.4°F11.3°C 46.1°F7.8°C 79% Calm Calm -- 30.04 in1017.3 mb - 0.00 in0.0 mm 0.00 in0.0 mm
08:30 PM 52.3°F11.3°C 45.9°F7.7°C 79% Calm Calm -- 30.03 in1016.9 mb - 0.00 in0.0 mm 0.00 in0.0 mm
08:35 PM 52.1°F11.2°C 45.8°F7.7°C 79% Calm Calm -- 30.03 in1016.9 mb - 0.00 in0.0 mm 0.00 in0.0 mm
08:40 PM 51.9°F11.1°C 45.6°F7.6°C 79% Calm Calm -- 30.03 in1016.9 mb - 0.00 in0.0 mm 0.00 in0.0 mm
08:45 PM 51.7°F10.9°C 45.7°F7.6°C 80% Calm Calm -- 30.03 in1016.9 mb - 0.00 in0.0 mm 0.00 in0.0 mm
08:50 PM 51.5°F10.8°C 45.5°F7.5°C 80% Calm Calm -- 30.03 in1016.9 mb - 0.00 in0.0 mm 0.00 in0.0 mm
08:55 PM 51.3°F10.7°C 45.7°F7.6°C 81% Calm Calm -- 30.03 in1016.9 mb - 0.00 in0.0 mm 0.00 in0.0 mm
09:00 PM 51.1°F10.6°C 45.5°F7.5°C 81% Calm Calm -- 30.03 in1016.9 mb - 0.00 in0.0 mm 0.00 in0.0 mm
09:05 PM 50.9°F10.5°C 45.3°F7.4°C 81% Calm Calm -- 30.03 in1016.9 mb - 0.00 in0.0 mm 0.00 in0.0 mm
09:10 PM 50.7°F10.4°C 45.1°F7.3°C 81% Calm Calm -- 30.03 in1016.9 mb - 0.00 in0.0 mm 0.00 in0.0 mm
09:15 PM 50.5°F10.3°C 45.2°F7.3°C 82% Calm Calm -- 30.03 in1016.9 mb - 0.00 in0.0 mm 0.00 in0.0 mm
09:20 PM 50.2°F10.1°C 45.0°F7.2°C 82% Calm Calm -- 30.04 in1017.3 mb - 0.00 in0.0 mm 0.00 in0.0 mm
09:25 PM 50.0°F10.0°C 45.0°F7.2°C 83% Calm Calm -- 30.04 in1017.3 mb - 0.00 in0.0 mm 0.00 in0.0 mm
09:30 PM 49.7°F9.8°C 44.8°F7.1°C 83% Calm Calm -- 30.03 in1016.9 mb - 0.00 in0.0 mm 0.00 in0.0 mm
09:35 PM 49.5°F9.7°C 44.6°F7.0°C 83% Calm Calm -- 30.03 in1016.9 mb - 0.00 in0.0 mm 0.00 in0.0 mm
09:40 PM 49.3°F9.6°C 44.7°F7.1°C 84% Calm Calm -- 30.03 in1016.9 mb - 0.00 in0.0 mm 0.00 in0.0 mm
09:45 PM 49.1°F9.5°C 44.4°F6.9°C 84% Calm Calm -- 30.03 in1016.9 mb - 0.00 in0.0 mm 0.00 in0.0 mm
09:50 PM 48.8°F9.3°C 44.5°F6.9°C 85% Calm Calm -- 30.02 in1016.6 mb - 0.00 in0.0 mm 0.00 in0.0 mm
09:55 PM 48.7°F9.3°C 44.4°F6.9°C 85% Calm Calm -- 30.02 in1016.6 mb - 0.00 in0.0 mm 0.00 in0.0 mm
10:00 PM 48.5°F9.2°C 44.2°F6.8°C 85% Calm Calm -- 30.02 in1016.6 mb - 0.00 in0.0 mm 0.00 in0.0 mm
10:05 PM 48.3°F9.1°C 44.0°F6.7°C 85% Calm Calm -- 30.02 in1016.6 mb - 0.00 in0.0 mm 0.00 in0.0 mm
10:10 PM 48.1°F8.9°C 43.8°F6.6°C 85% Calm Calm -- 30.02 in1016.6 mb - 0.00 in0.0 mm 0.00 in0.0 mm
10:15 PM 47.9°F8.8°C 43.6°F6.4°C 85% Calm Calm -- 30.02 in1016.6 mb - 0.00 in0.0 mm 0.00 in0.0 mm
10:20 PM 47.8°F8.8°C 43.8°F6.6°C 86% Calm Calm -- 30.02 in1016.6 mb - 0.00 in0.0 mm 0.00 in0.0 mm
10:25 PM 47.6°F8.7°C 43.6°F6.4°C 86% Calm Calm -- 30.02 in1016.6 mb - 0.00 in0.0 mm 0.00 in0.0 mm
10:30 PM 47.5°F8.6°C 43.5°F6.4°C 86% Calm Calm -- 30.02 in1016.6 mb - 0.00 in0.0 mm 0.00 in0.0 mm
10:35 PM 47.4°F8.6°C 43.4°F6.3°C 86% Calm Calm -- 30.02 in1016.6 mb - 0.00 in0.0 mm 0.00 in0.0 mm
10:40 PM 47.2°F8.4°C 43.2°F6.2°C 86% Calm Calm -- 30.02 in1016.6 mb - 0.00 in0.0 mm 0.00 in0.0 mm
10:45 PM 47.0°F8.3°C 43.4°F6.3°C 87% Calm Calm -- 30.02 in1016.6 mb - 0.00 in0.0 mm 0.00 in0.0 mm
10:50 PM 46.9°F8.3°C 43.2°F6.2°C 87% Calm Calm -- 30.02 in1016.6 mb - 0.00 in0.0 mm 0.00 in0.0 mm
10:55 PM 46.8°F8.2°C 43.1°F6.2°C 87% Calm Calm -- 30.02 in1016.6 mb - 0.00 in0.0 mm 0.00 in0.0 mm
11:00 PM 46.6°F8.1°C 42.9°F6.1°C 87% Calm Calm -- 30.02 in1016.6 mb - 0.00 in0.0 mm 0.00 in0.0 mm
11:05 PM 46.4°F8.0°C 42.8°F6.0°C 87% Calm Calm -- 30.02 in1016.6 mb - 0.00 in0.0 mm 0.00 in0.0 mm
11:10 PM 46.3°F7.9°C 42.9°F6.1°C 88% Calm Calm -- 30.02 in1016.6 mb - 0.00 in0.0 mm 0.00 in0.0 mm
11:15 PM 46.2°F7.9°C 42.8°F6.0°C 88% Calm Calm -- 30.02 in1016.6 mb - 0.00 in0.0 mm 0.00 in0.0 mm
11:20 PM 46.1°F7.8°C 42.7°F5.9°C 88% Calm Calm -- 30.01 in1016.3 mb - 0.00 in0.0 mm 0.00 in0.0 mm
11:25 PM 45.9°F7.7°C 42.5°F5.8°C 88% Calm Calm -- 30.01 in1016.3 mb - 0.00 in0.0 mm 0.00 in0.0 mm
11:30 PM 45.8°F7.7°C 42.5°F5.8°C 88% Calm Calm 1.2 mph1.9 kmh 30.01 in1016.3 mb - 0.00 in0.0 mm 0.00 in0.0 mm
11:35 PM 45.8°F7.7°C 42.7°F5.9°C 89% Calm Calm -- 30.01 in1016.3 mb - 0.00 in0.0 mm 0.00 in0.0 mm
11:40 PM 45.9°F7.7°C 42.8°F6.0°C 89% Calm Calm -- 30.01 in1016.3 mb - 0.00 in0.0 mm 0.00 in0.0 mm
11:45 PM 45.9°F7.7°C 42.8°F6.0°C 89% Calm Calm -- 30.01 in1016.3 mb - 0.00 in0.0 mm 0.00 in0.0 mm
11:50 PM 46.0°F7.8°C 42.9°F6.1°C 89% Calm Calm -- 30.01 in1016.3 mb - 0.00 in0.0 mm 0.00 in0.0 mm
11:55 PM 46.1°F7.8°C 43.3°F6.3°C 90% Calm Calm -- 30.01 in1016.3 mb - 0.00 in0.0 mm 0.00 in0.0 mm